Time;durP1;ratioP1;P1;durP2;ratioP2;P2;SDS_P1;SDS_P2;PMS_P1;PMS_P2;Temp;Humidity;BMP_temperature;BMP_pressure;BME280_temperature;BME280_humidity;BME280_pressure;Samples;Min_cycle;Max_cycle;Signal;HPM_P1;HPM_P2
2021/12/17 00:04:55;;;;;;;26.80;16.93;;;;;;;2.63;100.00;97506.34;6091294;23;20207;-87
2021/12/17 00:07:23;;;;;;;27.10;17.47;;;;;;;2.67;100.00;97509.66;6068874;23;20235;-86
2021/12/17 00:09:48;;;;;;;25.07;16.03;;;;;;;2.68;100.00;97509.63;6092858;23;20210;-86
2021/12/17 00:12:16;;;;;;;25.47;17.40;;;;;;;2.72;100.00;97507.78;6090825;23;20475;-86
2021/12/17 00:14:45;;;;;;;28.93;18.20;;;;;;;2.66;100.00;97508.00;6066953;23;20190;-84
2021/12/17 00:17:14;;;;;;;28.90;18.90;;;;;;;2.63;100.00;97502.94;6092450;23;20239;-87
2021/12/17 00:48:21;;;;;;;30.47;19.27;;;;;;;2.75;100.00;97489.72;6091792;23;20585;-86
2021/12/17 00:50:01;;;;;;;33.10;19.97;;;;;;;2.78;100.00;97498.16;6091491;23;20554;-85
2021/12/17 00:52:29;;;;;;;35.37;21.43;;;;;;;2.84;100.00;97497.94;6089963;23;20133;-86
2021/12/17 00:54:55;;;;;;;31.10;19.10;;;;;;;2.80;100.00;97486.09;6090091;23;20176;-86
2021/12/17 00:57:26;;;;;;;32.80;21.17;;;;;;;2.83;100.00;97482.63;6090124;23;20184;-86
2021/12/17 00:59:53;;;;;;;32.00;20.20;;;;;;;2.85;100.00;97491.09;6090385;23;20258;-85
2021/12/17 01:02:23;;;;;;;29.27;19.77;;;;;;;2.84;100.00;97487.69;6074094;23;20161;-85
2021/12/17 01:04:51;;;;;;;32.93;18.90;;;;;;;2.90;100.00;97484.03;6086933;23;20181;-85
2021/12/17 01:07:19;;;;;;;30.10;19.13;;;;;;;2.90;100.00;97478.09;6103043;23;20210;-86
2021/12/17 01:09:45;;;;;;;38.73;20.77;;;;;;;2.89;100.00;97484.94;6067503;23;20235;-87
2021/12/17 01:12:11;;;;;;;31.60;19.70;;;;;;;2.87;100.00;97488.47;6065352;23;20522;-86
2021/12/17 01:14:37;;;;;;;28.80;18.77;;;;;;;2.91;100.00;97484.88;6089961;23;20439;-85
2021/12/17 01:17:03;;;;;;;29.40;18.17;;;;;;;2.90;100.00;97483.22;6066156;23;20165;-86
2021/12/17 01:20:16;;;;;;;29.53;18.60;;;;;;;2.90;100.00;97478.91;6066779;23;20184;-86
2021/12/17 01:24:51;;;;;;;28.40;17.07;;;;;;;2.94;100.00;97472.81;6089782;23;20203;-85
2021/12/17 01:35:30;;;;;;;37.00;20.43;;;;;;;2.83;100.00;97451.81;6090815;23;20187;-85
2021/12/17 01:43:22;;;;;;;37.60;20.47;;;;;;;2.78;100.00;97446.00;6090217;23;20144;-85
2021/12/17 01:45:48;;;;;;;37.13;20.60;;;;;;;2.78;100.00;97451.13;6089836;23;20182;-86
2021/12/17 01:48:18;;;;;;;36.77;21.80;;;;;;;2.82;100.00;97450.13;6065964;23;20239;-86
2021/12/17 01:56:30;;;;;;;32.40;19.47;;;;;;;2.85;100.00;97485.94;6091527;23;20732;-85
2021/12/17 02:01:41;;;;;;;32.97;18.03;;;;;;;2.88;100.00;97480.72;6089536;23;20203;-85
2021/12/17 02:04:07;;;;;;;26.40;16.27;;;;;;;2.89;100.00;97473.84;6065978;23;20156;-86
2021/12/17 02:06:35;;;;;;;27.57;17.23;;;;;;;2.93;100.00;97471.13;6066194;23;20188;-87
2021/12/17 02:09:01;;;;;;;27.37;16.80;;;;;;;2.97;100.00;97482.94;6090305;23;20164;-86
2021/12/17 02:12:20;;;;;;;25.97;16.40;;;;;;;2.90;100.00;97476.34;6089066;23;20157;-85
2021/12/17 02:20:22;;;;;;;29.63;17.93;;;;;;;2.86;100.00;97469.66;6090134;23;20571;-86
2021/12/17 02:23:11;;;;;;;27.93;17.00;;;;;;;2.87;100.00;97471.34;6090650;23;20160;-86
2021/12/17 02:31:35;;;;;;;30.30;17.80;;;;;;;2.91;100.00;97457.50;6089859;23;20148;-87
2021/12/17 02:33:42;;;;;;;29.73;17.87;;;;;;;2.90;100.00;97455.81;6093810;23;20168;-86
2021/12/17 02:36:08;;;;;;;32.33;18.70;;;;;;;2.85;100.00;97450.03;6089580;23;20180;-86
2021/12/17 02:38:37;;;;;;;28.50;18.00;;;;;;;2.83;100.00;97452.66;6065714;23;20283;-86
2021/12/17 02:46:37;;;;;;;29.20;17.43;;;;;;;2.84;100.00;97430.41;6089739;23;20176;-87
2021/12/17 02:49:02;;;;;;;29.77;17.50;;;;;;;2.84;100.00;97425.25;6089416;23;20161;-86
2021/12/17 02:51:28;;;;;;;25.40;17.33;;;;;;;2.82;100.00;97421.88;6064978;23;20173;-86
2021/12/17 02:53:54;;;;;;;28.27;16.70;;;;;;;2.79;100.00;97422.84;6065373;23;20196;-86
2021/12/17 02:56:21;;;;;;;26.50;17.07;;;;;;;2.89;100.00;97425.91;6065348;23;20207;-85
2021/12/17 02:58:47;;;;;;;29.30;16.90;;;;;;;2.94;100.00;97425.78;6089075;23;20235;-85
2021/12/17 03:01:14;;;;;;;29.73;17.00;;;;;;;2.89;100.00;97417.38;6065139;23;20595;-86
2021/12/17 03:03:40;;;;;;;26.97;15.83;;;;;;;2.84;100.00;97410.69;6089527;23;20227;-85
2021/12/17 03:06:05;;;;;;;28.17;16.57;;;;;;;2.86;100.00;97405.50;6065515;23;20196;-86
2021/12/17 03:08:31;;;;;;;27.70;15.97;;;;;;;2.84;100.00;97404.75;6089629;23;20157;-87
2021/12/17 03:10:58;;;;;;;26.87;16.07;;;;;;;2.91;100.00;97411.28;6089207;23;20156;-86
2021/12/17 03:13:25;;;;;;;28.77;17.17;;;;;;;2.83;100.00;97408.19;6064659;23;20504;-85
2021/12/17 03:15:56;;;;;;;26.00;15.67;;;;;;;2.94;100.00;97418.06;6089309;23;20180;-85
2021/12/17 03:24:06;;;;;;;21.93;14.30;;;;;;;3.00;100.00;97417.81;6096578;23;20274;-86
2021/12/17 03:26:32;;;;;;;22.17;14.13;;;;;;;3.01;100.00;97409.25;6090427;23;20191;-85
2021/12/17 03:29:02;;;;;;;21.37;13.33;;;;;;;3.01;100.00;97420.38;6090460;23;20202;-85
2021/12/17 03:31:28;;;;;;;19.40;12.40;;;;;;;3.00;100.00;97422.97;6089923;23;20161;-87
2021/12/17 03:34:02;;;;;;;17.43;11.90;;;;;;;3.00;100.00;97416.09;6066601;23;20290;-86
2021/12/17 03:36:28;;;;;;;19.77;13.33;;;;;;;2.96;100.00;97418.84;6067770;23;20583;-86
2021/12/17 03:38:53;;;;;;;22.30;14.07;;;;;;;3.00;100.00;97418.66;6090077;23;20263;-85
2021/12/17 03:41:22;;;;;;;21.30;14.03;;;;;;;2.95;100.00;97423.16;6089918;23;20161;-85
2021/12/17 03:43:49;;;;;;;20.20;14.47;;;;;;;3.08;100.00;97431.22;6092007;23;20153;-86
2021/12/17 03:46:16;;;;;;;22.13;14.93;;;;;;;3.05;100.00;97431.34;6090564;23;20188;-85
2021/12/17 03:48:42;;;;;;;25.67;15.63;;;;;;;3.03;100.00;97430.56;6066256;23;20166;-86
2021/12/17 03:51:13;;;;;;;24.50;15.47;;;;;;;2.97;100.00;97426.47;6089820;23;20157;-85
2021/12/17 03:53:41;;;;;;;20.00;13.43;;;;;;;3.03;100.00;97430.56;6067553;23;20157;-85
2021/12/17 03:56:06;;;;;;;21.73;13.30;;;;;;;2.95;100.00;97425.72;6066305;23;20185;-85
2021/12/17 03:58:32;;;;;;;21.33;14.57;;;;;;;2.98;100.00;97440.16;6090187;23;20184;-84
2021/12/17 04:00:57;;;;;;;22.60;13.70;;;;;;;2.96;100.00;97429.94;6090359;23;20219;-85
2021/12/17 04:03:22;;;;;;;18.30;12.20;;;;;;;3.00;100.00;97425.53;6089751;23;20208;-86
2021/12/17 04:05:48;;;;;;;17.63;12.73;;;;;;;3.02;100.00;97424.59;6066390;23;20191;-86
2021/12/17 04:08:13;;;;;;;20.87;12.67;;;;;;;2.91;100.00;97419.00;6090768;23;20187;-85
2021/12/17 04:10:45;;;;;;;17.60;13.30;;;;;;;2.84;100.00;97422.69;6090583;23;20149;-87
2021/12/17 04:13:33;;;;;;;18.83;12.53;;;;;;;2.87;100.00;97427.72;6108489;23;20243;-84
2021/12/17 04:16:07;;;;;;;20.83;13.40;;;;;;;2.94;100.00;97425.78;6111324;23;20176;-88
2021/12/17 04:18:34;;;;;;;22.67;15.00;;;;;;;2.93;100.00;97424.09;6069906;23;20641;-87
2021/12/17 04:21:02;;;;;;;21.37;13.90;;;;;;;2.94;100.00;97433.47;6066182;23;20188;-86
2021/12/17 04:23:27;;;;;;;20.73;13.60;;;;;;;2.90;100.00;97429.31;6065279;23;20599;-86
2021/12/17 04:25:53;;;;;;;20.87;13.83;;;;;;;2.91;100.00;97434.41;6066914;23;20180;-86
2021/12/17 04:28:19;;;;;;;18.80;13.90;;;;;;;2.91;100.00;97431.81;6066856;23;20604;-86
2021/12/17 04:30:45;;;;;;;23.67;15.23;;;;;;;2.94;100.00;97429.16;6066600;23;20156;-84
2021/12/17 04:33:10;;;;;;;23.43;15.10;;;;;;;2.93;100.00;97424.94;6089827;23;20163;-85
2021/12/17 04:35:37;;;;;;;27.13;16.50;;;;;;;2.86;100.00;97423.47;6066144;23;20184;-84
2021/12/17 04:38:05;;;;;;;23.70;16.17;;;;;;;2.89;100.00;97420.78;6090426;23;20459;-87
2021/12/17 04:40:30;;;;;;;23.83;15.50;;;;;;;2.96;100.00;97427.38;6089991;23;20181;-86
2021/12/17 04:45:47;;;;;;;21.63;15.03;;;;;;;3.02;100.00;97429.75;6090472;23;20187;-86
2021/12/17 04:59:10;;;;;;;23.10;15.73;;;;;;;3.06;100.00;97410.75;6090270;23;20199;-86
2021/12/17 05:01:35;;;;;;;20.77;14.90;;;;;;;3.00;100.00;97405.00;6091113;23;20167;-86
2021/12/17 05:04:02;;;;;;;19.20;14.37;;;;;;;2.99;100.00;97404.16;6090293;23;20490;-86
2021/12/17 05:06:29;;;;;;;21.10;14.57;;;;;;;2.95;100.00;97386.38;6090229;23;20540;-86
2021/12/17 05:09:00;;;;;;;17.63;12.77;;;;;;;2.91;100.00;97379.66;6090310;23;20161;-86
2021/12/17 05:11:49;;;;;;;24.43;14.33;;;;;;;3.01;100.00;97388.72;6089843;23;20170;-86
2021/12/17 05:19:48;;;;;;;23.37;15.43;;;;;;;2.99;100.00;97391.31;6091176;23;20187;-85
2021/12/17 05:22:14;;;;;;;23.73;15.70;;;;;;;2.96;100.00;97391.44;6091317;23;20172;-86
2021/12/17 05:24:39;;;;;;;18.73;13.40;;;;;;;2.91;100.00;97398.47;6068196;23;20184;-85
2021/12/17 05:27:05;;;;;;;19.27;14.00;;;;;;;2.94;100.00;97400.94;6092337;23;20158;-81
2021/12/17 05:29:31;;;;;;;22.20;14.40;;;;;;;2.91;100.00;97395.91;6066014;23;20628;-84
2021/12/17 05:31:56;;;;;;;19.03;12.83;;;;;;;2.89;100.00;97394.28;6068037;23;20161;-86
2021/12/17 05:34:21;;;;;;;19.40;12.33;;;;;;;2.89;100.00;97390.00;6092067;23;20176;-86
2021/12/17 05:36:47;;;;;;;18.47;13.07;;;;;;;2.91;100.00;97400.19;6092098;23;20165;-84
2021/12/17 05:39:12;;;;;;;15.50;12.53;;;;;;;2.90;100.00;97395.97;6092293;23;20185;-85
2021/12/17 05:41:37;;;;;;;15.80;11.80;;;;;;;2.93;100.00;97383.03;6090907;23;20624;-86
2021/12/17 05:44:03;;;;;;;17.83;12.43;;;;;;;2.90;100.00;97385.69;6091448;23;20165;-86
2021/12/17 05:46:48;;;;;;;19.90;13.30;;;;;;;2.84;100.00;97385.03;6092754;23;20173;-84
2021/12/17 05:49:15;;;;;;;20.70;13.73;;;;;;;2.89;100.00;97378.91;6093341;23;20144;-84
2021/12/17 05:51:40;;;;;;;20.47;14.73;;;;;;;2.86;100.00;97377.28;6090559;23;20175;-86
2021/12/17 05:54:05;;;;;;;17.53;13.70;;;;;;;2.84;100.00;97374.78;6093007;23;20168;-85
2021/12/17 05:56:31;;;;;;;19.40;13.00;;;;;;;2.87;100.00;97367.84;6092209;23;20491;-86
2021/12/17 05:58:56;;;;;;;21.50;15.23;;;;;;;2.84;100.00;97369.66;6092293;23;20175;-84
2021/12/17 06:01:22;;;;;;;22.70;15.63;;;;;;;2.86;100.00;97366.19;6092018;23;20164;-86
2021/12/17 06:03:47;;;;;;;19.70;14.13;;;;;;;2.79;100.00;97373.25;6068586;23;20156;-85
2021/12/17 06:06:25;;;;;;;19.27;14.00;;;;;;;2.82;100.00;97385.97;6090930;23;20514;-84
2021/12/17 06:08:50;;;;;;;17.13;13.13;;;;;;;2.81;100.00;97381.75;6069652;23;20148;-84
2021/12/17 06:11:15;;;;;;;19.87;13.67;;;;;;;2.81;100.00;97374.88;6092205;23;20494;-86
2021/12/17 06:13:40;;;;;;;20.43;12.97;;;;;;;2.78;100.00;97379.28;6086481;23;20165;-84
2021/12/17 06:16:07;;;;;;;15.53;11.87;;;;;;;2.73;100.00;97378.59;6091672;23;20184;-85
2021/12/17 06:18:32;;;;;;;15.53;11.73;;;;;;;2.75;100.00;97379.41;6091938;23;20183;-85
2021/12/17 06:20:57;;;;;;;13.50;10.20;;;;;;;2.72;100.00;97379.50;6092115;23;20193;-83
2021/12/17 06:23:23;;;;;;;13.63;10.23;;;;;;;2.69;100.00;97375.31;6068097;23;20160;-85
2021/12/17 06:25:48;;;;;;;13.70;10.60;;;;;;;2.69;100.00;97364.22;6067567;23;20187;-84
2021/12/17 06:28:14;;;;;;;16.93;11.43;;;;;;;2.69;100.00;97369.34;6091363;23;20164;-84
2021/12/17 06:30:40;;;;;;;15.73;11.47;;;;;;;2.77;100.00;97375.06;6092278;23;20603;-85
2021/12/17 06:33:05;;;;;;;15.50;11.40;;;;;;;2.70;100.00;97373.59;6090771;23;20164;-86
2021/12/17 06:35:30;;;;;;;14.17;10.00;;;;;;;2.62;100.00;97373.88;6067872;23;20188;-84
2021/12/17 06:37:56;;;;;;;11.63;8.63;;;;;;;2.62;99.85;97373.03;6091895;23;20545;-85
2021/12/17 06:40:21;;;;;;;10.63;8.77;;;;;;;2.59;99.35;97378.28;6068062;23;20264;-84
2021/12/17 06:42:46;;;;;;;11.70;9.17;;;;;;;2.57;98.83;97375.78;6089717;23;20157;-81
2021/12/17 06:45:22;;;;;;;11.20;9.00;;;;;;;2.58;98.81;97389.44;6089628;23;20557;-82
2021/12/17 06:47:55;;;;;;;12.33;10.17;;;;;;;2.51;99.30;97389.63;6089131;23;20215;-80
2021/12/17 06:56:34;;;;;;;15.50;11.93;;;;;;;2.60;100.00;97415.84;6090738;23;20751;-81
2021/12/17 06:58:54;;;;;;;19.00;13.03;;;;;;;2.60;100.00;97414.13;6089712;23;20192;-81
2021/12/17 07:05:56;;;;;;;16.97;11.90;;;;;;;2.54;100.00;97412.59;6088496;23;20231;-83
2021/12/17 07:10:03;;;;;;;14.63;10.93;;;;;;;2.50;99.88;97416.19;6090834;23;20240;-83
2021/12/17 07:17:54;;;;;;;15.33;11.47;;;;;;;2.52;100.00;97440.03;6091061;23;20483;-83
2021/12/17 07:23:35;;;;;;;12.33;10.23;;;;;;;2.48;99.45;97438.47;6092987;23;20153;-85
2021/12/17 07:33:45;;;;;;;12.27;10.03;;;;;;;2.51;98.34;97437.53;6091511;23;20168;-86
2021/12/17 07:36:13;;;;;;;12.73;9.70;;;;;;;2.59;98.18;97444.97;6068487;23;20491;-87
2021/12/17 07:38:50;;;;;;;13.80;10.60;;;;;;;2.57;97.88;97457.84;6090893;23;20165;-86
2021/12/17 07:41:16;;;;;;;13.17;9.43;;;;;;;2.60;97.91;97451.75;6089752;23;20269;-86
2021/12/17 07:43:52;;;;;;;12.53;9.27;;;;;;;2.61;97.58;97456.84;6067795;23;20161;-85
2021/12/17 07:46:21;;;;;;;12.73;8.93;;;;;;;2.57;97.49;97446.75;6069328;23;20522;-85
2021/12/17 07:48:46;;;;;;;10.83;9.00;;;;;;;2.64;96.81;97468.72;6068440;23;20152;-87
2021/12/17 07:51:14;;;;;;;12.77;10.43;;;;;;;2.64;96.65;97463.59;6068009;23;20161;-86
2021/12/17 07:54:04;;;;;;;15.67;10.53;;;;;;;2.63;97.29;97460.19;6068183;23;20168;-87
2021/12/17 07:56:55;;;;;;;13.17;9.97;;;;;;;2.67;97.31;97458.38;6193339;23;20253;-87
2021/12/17 08:15:38;;;;;;;13.73;10.60;;;;;;;2.79;96.95;97465.63;6093450;23;20648;-84
2021/12/17 08:32:45;;;;;;;12.33;9.60;;;;;;;3.00;94.56;97467.44;6131080;23;20217;-85
2021/12/17 08:35:11;;;;;;;11.67;8.77;;;;;;;2.94;94.03;97469.41;6129307;23;20234;-85
2021/12/17 08:37:37;;;;;;;12.53;8.77;;;;;;;3.02;94.05;97473.38;6106074;23;20598;-86
2021/12/17 08:40:03;;;;;;;12.40;9.90;;;;;;;2.99;93.35;97465.75;6155488;23;20187;-87
2021/12/17 08:48:30;;;;;;;11.10;8.67;;;;;;;2.81;92.58;97471.53;6125846;23;20218;-87
2021/12/17 08:50:59;;;;;;;13.30;10.43;;;;;;;2.88;92.74;97477.31;6074163;23;20160;-87
2021/12/17 08:53:28;;;;;;;12.80;9.47;;;;;;;2.83;93.25;97470.63;6071742;23;20163;-87
2021/12/17 08:55:56;;;;;;;12.03;9.63;;;;;;;2.91;93.23;97478.03;6095341;23;20183;-88
2021/12/17 08:58:22;;;;;;;12.17;9.77;;;;;;;3.00;92.86;97476.84;6095589;23;20163;-87
2021/12/17 09:00:47;;;;;;;13.90;10.27;;;;;;;3.06;93.04;97485.19;6121066;23;20207;-89
2021/12/17 09:03:13;;;;;;;16.17;10.57;;;;;;;2.99;93.87;97481.16;6095195;23;20160;-85
2021/12/17 09:05:41;;;;;;;13.53;10.57;;;;;;;2.97;93.38;97485.50;6071724;23;20250;-84
2021/12/17 09:08:08;;;;;;;14.17;10.03;;;;;;;2.99;93.22;97481.16;6095650;23;20167;-86
2021/12/17 09:10:45;;;;;;;14.13;10.73;;;;;;;2.98;92.55;97484.63;6118342;23;20162;-85
2021/12/17 09:13:16;;;;;;;15.57;11.20;;;;;;;2.93;92.72;97480.56;6095054;23;20234;-87
2021/12/17 09:15:46;;;;;;;13.87;10.17;;;;;;;2.94;92.01;97483.06;6095239;23;20600;-87
2021/12/17 09:18:12;;;;;;;13.80;11.00;;;;;;;2.99;92.92;97478.59;6071030;23;20160;-84
2021/12/17 09:20:43;;;;;;;12.77;10.40;;;;;;;3.09;92.19;97486.81;6122640;23;20266;-87
2021/12/17 09:23:09;;;;;;;13.40;10.23;;;;;;;3.13;92.33;97484.09;6095646;23;20640;-85
2021/12/17 09:25:34;;;;;;;11.73;9.70;;;;;;;3.12;92.34;97486.72;6071458;23;20180;-85
2021/12/17 09:28:00;;;;;;;11.80;9.47;;;;;;;3.15;91.62;97493.47;6119809;23;20152;-84
2021/12/17 09:30:28;;;;;;;12.70;9.73;;;;;;;3.21;91.91;97494.09;6096782;23;20635;-86
2021/12/17 09:32:59;;;;;;;10.50;8.97;;;;;;;3.20;91.88;97492.41;6094819;23;20156;-86
2021/12/17 09:35:24;;;;;;;11.73;8.57;;;;;;;3.20;90.80;97489.00;6095196;23;20176;-85
2021/12/17 09:37:50;;;;;;;11.83;9.27;;;;;;;3.26;91.53;97493.91;6071524;23;20163;-85
2021/12/17 09:40:17;;;;;;;12.40;9.67;;;;;;;3.15;91.44;97484.03;6070713;23;20180;-84
2021/12/17 09:43:14;;;;;;;12.03;9.60;;;;;;;3.24;91.17;97482.84;6094612;23;20614;-87
2021/12/17 09:45:51;;;;;;;11.60;9.67;;;;;;;3.22;91.91;97476.94;6069340;23;20186;-87
2021/12/17 09:48:19;;;;;;;11.97;9.47;;;;;;;3.26;90.45;97473.34;6095970;23;20171;-86
2021/12/17 09:51:02;;;;;;;10.83;9.63;;;;;;;3.34;90.75;97473.91;6094637;23;20202;-89
2021/12/17 09:53:39;;;;;;;12.63;9.80;;;;;;;3.34;90.24;97472.19;6118445;23;20152;-87
2021/12/17 09:56:08;;;;;;;12.17;9.73;;;;;;;3.48;90.33;97473.41;6100685;23;20202;-84
2021/12/17 09:58:33;;;;;;;11.33;9.00;;;;;;;3.56;89.97;97472.25;6098626;23;20180;-86
2021/12/17 10:00:59;;;;;;;11.60;9.70;;;;;;;3.54;90.42;97479.19;6074440;23;20531;-86
2021/12/17 10:03:25;;;;;;;12.23;8.80;;;;;;;3.58;89.92;97478.16;6096509;23;20196;-85
2021/12/17 10:05:51;;;;;;;11.77;9.23;;;;;;;3.69;88.92;97476.00;6197744;23;20233;-87
2021/12/17 10:08:19;;;;;;;10.03;8.30;;;;;;;3.68;88.97;97471.75;6074338;23;20155;-86
2021/12/17 10:11:00;;;;;;;10.83;8.33;;;;;;;3.74;89.08;97475.00;6073829;23;20156;-87
2021/12/17 10:13:34;;;;;;;10.83;9.23;;;;;;;3.75;88.90;97468.97;6199500;23;20361;-85
2021/12/17 10:16:07;;;;;;;9.27;8.30;;;;;;;3.80;89.17;97467.91;6074682;23;20180;-89
2021/12/17 10:41:52;;;;;;;11.53;9.23;;;;;;;3.65;87.64;97469.31;6125557;23;20222;-87
2021/12/17 10:44:20;;;;;;;10.87;9.10;;;;;;;3.68;87.06;97461.50;6076130;23;20233;-86
2021/12/17 10:47:29;;;;;;;12.33;8.40;;;;;;;3.80;87.16;97464.47;6101179;23;20163;-86
2021/12/17 10:49:56;;;;;;;11.40;9.23;;;;;;;3.97;86.31;97472.38;6064769;23;20530;-86
2021/12/17 10:52:30;;;;;;;10.77;8.67;;;;;;;3.97;85.31;97473.19;6077335;23;20164;-86
2021/12/17 10:55:15;;;;;;;10.57;8.30;;;;;;;3.92;84.94;97475.13;6101409;23;20178;-87
2021/12/17 10:57:42;;;;;;;10.93;8.13;;;;;;;3.97;85.17;97472.38;6097827;23;20572;-85
2021/12/17 11:00:11;;;;;;;11.33;8.00;;;;;;;3.94;84.82;97475.06;6073744;23;20184;-87
2021/12/17 11:02:37;;;;;;;10.77;8.20;;;;;;;4.06;84.77;97472.00;6097936;23;20231;-86
2021/12/17 11:05:15;;;;;;;9.57;7.90;;;;;;;4.25;84.60;97478.09;6097846;23;20179;-85
2021/12/17 11:07:48;;;;;;;9.13;7.73;;;;;;;4.25;84.54;97472.97;6074764;23;20156;-84
2021/12/17 11:10:16;;;;;;;12.43;8.07;;;;;;;4.36;84.11;97476.84;6098525;23;20144;-85
2021/12/17 11:12:44;;;;;;;10.30;8.00;;;;;;;4.41;83.27;97480.03;6200173;23;20580;-85
2021/12/17 11:15:26;;;;;;;11.33;8.63;;;;;;;4.26;83.67;97477.22;6079556;23;20177;-84
2021/12/17 11:17:55;;;;;;;10.27;7.97;;;;;;;4.38;82.95;97472.44;6101891;23;20157;-86
2021/12/17 11:20:27;;;;;;;12.97;9.10;;;;;;;4.35;83.32;97477.72;6078539;23;20278;-83
2021/12/17 11:23:16;;;;;;;12.40;9.53;;;;;;;4.47;83.73;97472.06;6205712;23;20160;-84
2021/12/17 11:25:48;;;;;;;11.47;8.50;;;;;;;4.48;83.04;97477.16;6103009;23;20183;-84
2021/12/17 11:28:14;;;;;;;11.60;8.70;;;;;;;4.52;82.92;97480.44;6099143;23;20238;-84
2021/12/17 11:30:46;;;;;;;12.90;9.60;;;;;;;4.39;83.83;97466.41;6200429;23;20152;-85
2021/12/17 11:33:14;;;;;;;13.23;8.57;;;;;;;4.45;83.85;97453.31;6117866;23;20164;-85
2021/12/17 11:35:43;;;;;;;11.97;8.80;;;;;;;4.48;83.35;97458.31;6120676;23;20176;-86
2021/12/17 11:38:33;;;;;;;10.83;9.13;;;;;;;4.47;83.82;97457.47;6121601;23;20178;-86
2021/12/17 11:41:14;;;;;;;13.80;11.53;;;;;;;4.65;83.57;97466.16;6143987;23;20184;-84
2021/12/17 11:43:59;;;;;;;12.67;9.87;;;;;;;4.52;83.74;97459.88;6116216;23;20250;-84
2021/12/17 11:46:26;;;;;;;11.33;8.70;;;;;;;4.55;83.85;97454.59;6214880;23;20240;-86
2021/12/17 11:49:01;;;;;;;12.93;10.53;;;;;;;4.47;84.21;97449.75;6095267;23;20174;-88
2021/12/17 11:51:29;;;;;;;15.03;10.03;;;;;;;4.50;83.93;97454.75;6130027;23;20152;-86
2021/12/17 11:53:55;;;;;;;13.20;10.47;;;;;;;4.63;83.82;97457.69;6070969;23;20177;-85
2021/12/17 11:56:40;;;;;;;11.90;9.60;;;;;;;4.79;83.23;97450.97;6094993;23;20232;-85
2021/12/17 11:59:07;;;;;;;11.33;9.73;;;;;;;4.67;83.57;97454.06;6094088;23;20162;-84
2021/12/17 12:02:11;;;;;;;10.00;8.40;;;;;;;4.79;82.61;97458.69;6197685;23;20163;-86
2021/12/17 12:04:36;;;;;;;11.83;9.77;;;;;;;4.71;82.24;97460.75;6051675;23;20203;-85
2021/12/17 12:07:09;;;;;;;12.73;9.10;;;;;;;4.74;80.80;97458.03;6097104;23;20537;-86
2021/12/17 12:10:00;;;;;;;12.60;10.33;;;;;;;4.58;81.14;97454.44;6097907;23;20152;-87
2021/12/17 12:12:40;;;;;;;19.97;12.03;;;;;;;4.80;81.14;97452.66;6098473;23;20162;-87
2021/12/17 12:15:24;;;;;;;13.00;9.33;;;;;;;4.77;81.51;97455.38;6099192;23;20208;-87
2021/12/17 12:18:07;;;;;;;12.23;9.47;;;;;;;4.92;81.80;97463.31;6096269;23;20172;-86
2021/12/17 12:20:55;;;;;;;12.00;10.07;;;;;;;4.80;82.08;97452.66;6121359;23;20225;-86
2021/12/17 12:23:25;;;;;;;14.00;9.70;;;;;;;4.81;81.73;97438.88;6095470;23;20208;-86
2021/12/17 12:26:11;;;;;;;12.80;10.37;;;;;;;4.78;82.26;97441.59;6095317;23;20631;-86
2021/12/17 12:28:45;;;;;;;12.30;10.00;;;;;;;4.73;82.20;97438.38;6095488;23;20492;-86
2021/12/17 12:31:20;;;;;;;14.00;9.23;;;;;;;4.76;82.54;97443.38;6094523;23;20504;-85
2021/12/17 12:34:04;;;;;;;10.47;8.33;;;;;;;4.71;82.59;97449.63;6121915;23;20139;-87
2021/12/17 12:36:51;;;;;;;12.10;8.80;;;;;;;4.64;82.81;97450.78;6121053;23;20156;-84
2021/12/17 12:39:33;;;;;;;10.93;8.33;;;;;;;4.73;82.56;97460.69;6095291;23;20249;-86
2021/12/17 12:42:17;;;;;;;11.63;8.63;;;;;;;4.67;82.52;97448.06;6094192;23;20293;-86
2021/12/17 12:44:42;;;;;;;14.23;10.53;;;;;;;4.82;82.96;97447.44;6094989;23;20213;-86
2021/12/17 12:47:15;;;;;;;11.67;9.27;;;;;;;4.78;83.18;97457.03;6095745;23;20242;-86
2021/12/17 12:49:53;;;;;;;17.13;9.60;;;;;;;4.90;83.08;97455.66;6099696;23;20160;-88
2021/12/17 12:52:27;;;;;;;14.33;9.83;;;;;;;4.88;82.57;97443.75;6070410;23;20493;-87
2021/12/17 12:54:55;;;;;;;11.77;9.27;;;;;;;4.93;83.13;97446.97;6197493;23;20180;-86
2021/12/17 12:57:33;;;;;;;11.23;9.13;;;;;;;5.02;83.45;97446.56;6071636;23;20225;-86
2021/12/17 13:00:02;;;;;;;11.17;8.77;;;;;;;5.03;83.09;97440.50;6072179;23;20207;-87
2021/12/17 13:02:27;;;;;;;11.77;9.20;;;;;;;5.07;82.99;97442.88;6198765;23;20596;-87
2021/12/17 13:04:57;;;;;;;11.10;9.10;;;;;;;5.11;82.53;97443.56;6096570;23;20176;-87
2021/12/17 13:07:37;;;;;;;11.37;8.53;;;;;;;4.92;83.15;97427.28;6097559;23;20148;-86
2021/12/17 13:10:11;;;;;;;11.20;8.77;;;;;;;4.98;82.80;97439.88;6122658;23;20140;-87
2021/12/17 13:12:37;;;;;;;10.67;8.23;;;;;;;5.07;82.93;97442.06;6121728;23;20156;-87
2021/12/17 13:15:20;;;;;;;11.07;8.27;;;;;;;5.03;83.21;97438.75;6071076;23;20255;-86
2021/12/17 13:21:03;;;;;;;11.80;9.30;;;;;;;4.61;84.49;97432.91;6101028;23;20200;-86
2021/12/17 13:23:32;;;;;;;9.80;8.00;;;;;;;4.52;84.51;97434.97;6097015;23;20217;-87
2021/12/17 13:26:09;;;;;;;11.97;9.03;;;;;;;4.31;85.49;97440.16;6073137;23;20187;-87
2021/12/17 13:28:52;;;;;;;10.43;8.57;;;;;;;4.21;85.76;97432.81;6097945;23;20155;-86
2021/12/17 13:31:49;;;;;;;12.27;8.67;;;;;;;4.18;86.61;97456.09;6097309;23;20163;-86
2021/12/17 13:34:19;;;;;;;9.20;8.07;;;;;;;4.16;86.70;97446.78;6062743;23;20280;-87
2021/12/17 13:36:57;;;;;;;9.10;7.80;;;;;;;4.17;87.07;97462.16;6201702;23;20161;-86
2021/12/17 13:39:25;;;;;;;11.20;8.37;;;;;;;4.25;87.46;97454.97;6201465;23;20564;-87
2021/12/17 13:41:51;;;;;;;11.07;8.90;;;;;;;4.26;87.03;97463.50;6201051;23;20160;-87
2021/12/17 13:44:37;;;;;;;9.63;8.10;;;;;;;4.18;87.20;97463.81;6073935;23;20535;-86
2021/12/17 13:47:12;;;;;;;10.13;7.93;;;;;;;4.37;86.51;97452.78;6075831;23;20157;-86
2021/12/17 13:49:39;;;;;;;10.80;8.17;;;;;;;4.30;86.68;97448.78;6201483;23;20159;-86
2021/12/17 13:52:05;;;;;;;10.20;7.90;;;;;;;4.37;86.80;97445.91;6076557;23;20547;-87
2021/12/17 13:54:31;;;;;;;10.77;8.73;;;;;;;4.22;86.86;97451.66;6074231;23;20178;-88
2021/12/17 13:56:57;;;;;;;12.53;9.67;;;;;;;4.19;87.32;97447.47;6075177;23;20166;-84
2021/12/17 13:59:33;;;;;;;10.10;8.70;;;;;;;4.29;86.65;97447.94;6200331;23;20585;-86
2021/12/17 14:02:06;;;;;;;11.00;9.03;;;;;;;4.34;87.25;97443.47;6072654;23;20152;-86
2021/12/17 14:04:32;;;;;;;10.67;8.43;;;;;;;4.31;87.23;97435.84;6097917;23;20187;-87
2021/12/17 14:07:03;;;;;;;12.17;9.23;;;;;;;4.27;87.29;97429.16;6075103;23;20166;-87
2021/12/17 14:09:32;;;;;;;14.40;10.03;;;;;;;4.26;87.29;97423.19;6200671;23;20159;-83
2021/12/17 14:12:07;;;;;;;12.77;10.00;;;;;;;4.30;87.16;97423.06;6074567;23;20182;-85
2021/12/17 14:14:34;;;;;;;14.33;10.53;;;;;;;4.37;87.23;97421.91;6098078;23;20191;-86
2021/12/17 14:17:03;;;;;;;13.83;9.90;;;;;;;4.33;86.58;97428.06;6098544;23;20169;-86
2021/12/17 14:19:46;;;;;;;14.10;9.77;;;;;;;4.29;87.00;97431.69;6201316;23;20713;-85
2021/12/17 14:22:27;;;;;;;14.57;10.97;;;;;;;4.34;87.06;97432.34;6199919;23;20517;-85
2021/12/17 14:24:56;;;;;;;11.30;9.53;;;;;;;4.24;87.34;97434.41;6073599;23;20187;-81
2021/12/17 14:27:21;;;;;;;12.87;10.10;;;;;;;4.12;88.08;97438.34;6227866;23;20472;-85
2021/12/17 14:29:48;;;;;;;15.13;10.77;;;;;;;4.05;87.70;97433.50;6096854;23;20165;-85
2021/12/17 14:32:19;;;;;;;16.63;12.20;;;;;;;3.97;88.25;97432.06;6095907;23;20207;-85
2021/12/17 14:34:45;;;;;;;13.67;10.47;;;;;;;3.95;88.62;97438.19;6093314;23;20225;-85
2021/12/17 14:37:10;;;;;;;13.13;10.07;;;;;;;3.96;88.73;97447.56;6095770;23;20159;-85
2021/12/17 14:39:39;;;;;;;14.97;10.77;;;;;;;3.93;89.10;97442.56;6071939;23;20190;-85
2021/12/17 14:42:06;;;;;;;15.80;11.53;;;;;;;3.87;89.67;97456.47;6074217;23;20158;-84
2021/12/17 14:44:50;;;;;;;13.93;11.50;;;;;;;3.74;89.97;97464.72;6121975;23;20652;-86
2021/12/17 15:00:27;;;;;;;18.43;14.70;;;;;;;3.58;91.14;97477.31;6096332;23;20176;-85
2021/12/17 15:02:58;;;;;;;19.47;13.03;;;;;;;3.38;90.95;97481.47;6094327;23;20143;-86